Time;durP1;ratioP1;P1;durP2;ratioP2;P2;SDS_P1;SDS_P2;PMS_P1;PMS_P2;Temp;Humidity;BMP_temperature;BMP_pressure;BME280_temperature;BME280_humidity;BME280_pressure;Samples;Min_cycle;Max_cycle;Signal;HPM_P1;HPM_P2
2021/08/03 00:09:41;;;;;;;6.37;3.53;;;25.10;30.40;;;;;;21181342;28;20051;-69
2021/08/03 00:19:43;;;;;;;8.82;3.97;;;24.90;30.40;;;;;;21178776;28;20074;-67
2021/08/03 00:29:45;;;;;;;7.57;3.20;;;24.70;29.10;;;;;;21176632;28;20075;-74
2021/08/03 00:39:47;;;;;;;7.20;3.10;;;24.70;30.40;;;;;;21178330;28;20043;-71
2021/08/03 00:49:49;;;;;;;7.22;2.97;;;24.60;32.30;;;;;;21176319;28;20052;-71
2021/08/03 00:59:50;;;;;;;7.47;3.57;;;24.50;33.90;;;;;;21176355;28;20052;-65
2021/08/03 01:10:04;;;;;;;8.37;3.13;;;24.60;36.30;;;;;;21174147;28;20296;-67
2021/08/03 01:20:14;;;;;;;6.57;2.97;;;24.60;38.00;;;;;;21174630;28;20187;-74
2021/08/03 01:30:16;;;;;;;6.50;3.20;;;24.40;40.30;;;;;;21181378;28;20051;-69
2021/08/03 01:40:18;;;;;;;7.97;3.17;;;24.20;42.10;;;;;;21173667;28;20039;-66
2021/08/03 01:50:20;;;;;;;5.28;2.70;;;24.10;44.10;;;;;;21170655;28;20464;-72
2021/08/03 02:00:27;;;;;;;6.75;3.10;;;24.10;46.00;;;;;;21171881;28;20047;-74
2021/08/03 02:10:34;;;;;;;7.25;3.00;;;23.90;47.50;;;;;;21170799;28;20059;-72
2021/08/03 02:20:38;;;;;;;6.65;3.08;;;23.90;48.40;;;;;;21242893;28;20027;-66
2021/08/03 02:30:43;;;;;;;7.25;3.22;;;23.80;49.20;;;;;;21179086;28;20419;-69
2021/08/03 02:40:46;;;;;;;8.65;3.17;;;23.80;49.80;;;;;;21169149;28;20048;-74
2021/08/03 02:50:54;;;;;;;6.28;2.80;;;23.70;50.20;;;;;;21166791;28;20044;-64
2021/08/03 03:01:00;;;;;;;5.45;3.10;;;23.70;50.50;;;;;;21167808;28;20055;-66
2021/08/03 03:11:09;;;;;;;5.97;2.90;;;23.60;51.30;;;;;;21171011;28;20044;-69
2021/08/03 03:21:19;;;;;;;6.05;3.00;;;23.40;51.50;;;;;;21165743;28;20120;-71
2021/08/03 03:31:28;;;;;;;8.27;3.28;;;23.50;51.70;;;;;;21166360;28;20074;-66
2021/08/03 03:41:33;;;;;;;4.97;3.33;;;23.50;50.40;;;;;;21164824;28;20055;-70
2021/08/03 03:51:41;;;;;;;5.47;3.38;;;23.30;46.50;;;;;;21165358;28;20043;-67
2021/08/03 04:01:43;;;;;;;5.50;3.22;;;22.70;45.40;;;;;;21162679;28;20055;-64
2021/08/03 04:11:45;;;;;;;;;;;22.50;45.90;;;;;;21163898;28;20047;-70
2021/08/03 04:21:48;;;;;;;5.50;3.47;;;22.20;46.10;;;;;;21163927;28;19924;-72
2021/08/03 04:31:50;;;;;;;8.68;3.50;;;22.20;46.80;;;;;;21163223;28;20048;-69
2021/08/03 04:41:54;;;;;;;8.52;3.80;;;22.10;46.80;;;;;;21194801;27;20063;-64
2021/08/03 04:52:01;;;;;;;4.90;2.90;;;22.10;47.20;;;;;;21174898;28;20480;-70
2021/08/03 05:02:04;;;;;;;4.53;2.90;;;22.10;47.30;;;;;;21177251;28;20052;-66
2021/08/03 05:12:06;;;;;;;6.15;3.50;;;22.20;47.60;;;;;;21188291;28;20047;-63
2021/08/03 05:22:07;;;;;;;5.65;3.33;;;22.20;48.60;;;;;;21194979;28;20544;-64
2021/08/03 05:32:10;;;;;;;6.45;4.13;;;22.20;48.80;;;;;;21181846;28;20055;-65
2021/08/03 05:42:11;;;;;;;14.23;5.07;;;22.20;48.70;;;;;;21173063;28;20518;-65
2021/08/03 05:52:14;;;;;;;7.67;3.90;;;22.30;48.80;;;;;;21171792;28;20062;-63
2021/08/03 06:02:16;;;;;;;7.80;3.67;;;22.40;49.00;;;;;;21171329;28;20056;-68
2021/08/03 06:12:20;;;;;;;5.67;3.73;;;22.50;51.50;;;;;;21170558;28;20096;-69
2021/08/03 06:22:22;;;;;;;9.00;3.80;;;22.70;53.90;;;;;;21170038;28;20052;-65
2021/08/03 06:32:27;;;;;;;9.13;4.05;;;22.70;50.80;;;;;;21185219;28;20048;-67
2021/08/03 06:42:40;;;;;;;9.20;4.10;;;22.70;50.60;;;;;;21167365;28;20380;-66
2021/08/03 06:52:43;;;;;;;8.80;3.50;;;23.10;51.80;;;;;;21166055;28;20048;-65
2021/08/03 07:02:48;;;;;;;10.77;3.92;;;23.50;51.70;;;;;;21165152;28;20052;-65
2021/08/03 07:12:53;;;;;;;10.60;4.00;;;23.90;51.50;;;;;;21165292;28;20097;-65
2021/08/03 07:23:03;;;;;;;7.40;3.60;;;24.10;50.90;;;;;;21140563;28;20100;-66
2021/08/03 07:33:05;;;;;;;6.85;4.00;;;24.10;50.80;;;;;;21081367;28;20044;-69
2021/08/03 07:43:06;;;;;;;12.33;3.87;;;24.30;50.70;;;;;;21079854;28;20048;-68
2021/08/03 07:53:09;;;;;;;13.03;4.17;;;24.80;49.30;;;;;;21080016;28;20416;-62
2021/08/03 08:03:11;;;;;;;7.80;4.03;;;25.30;48.00;;;;;;21080124;28;20048;-67
2021/08/03 08:13:12;;;;;;;8.60;3.53;;;25.60;47.70;;;;;;21079397;28;20197;-62
2021/08/03 08:23:14;;;;;;;8.27;4.20;;;25.70;47.30;;;;;;21092213;28;20062;-68
2021/08/03 08:33:26;;;;;;;11.10;3.65;;;26.40;46.10;;;;;;21178835;28;20482;-67
2021/08/03 08:43:28;;;;;;;7.60;4.38;;;27.00;45.10;;;;;;21177366;28;20063;-67
2021/08/03 08:53:33;;;;;;;8.40;3.75;;;27.30;44.70;;;;;;21176955;28;20047;-73
2021/08/03 09:03:35;;;;;;;10.35;4.35;;;27.60;43.90;;;;;;21180380;28;20051;-73
2021/08/03 09:13:56;;;;;;;7.65;3.38;;;27.30;44.40;;;;;;21178400;28;20047;-65
2021/08/03 09:24:03;;;;;;;10.52;4.18;;;27.60;44.00;;;;;;21177198;28;20059;-68
2021/08/03 09:34:16;;;;;;;11.18;4.25;;;27.90;43.10;;;;;;21179481;28;20043;-73
2021/08/03 09:44:17;;;;;;;9.82;6.38;;;28.20;42.30;;;;;;21181780;28;20078;-75
2021/08/03 09:54:19;;;;;;;10.63;6.03;;;28.30;41.40;;;;;;21174530;28;20040;-69
2021/08/03 10:04:20;;;;;;;6.28;3.35;;;28.50;41.30;;;;;;21172623;28;20054;-72
2021/08/03 10:14:22;;;;;;;7.43;3.50;;;28.70;40.20;;;;;;21171093;28;20048;-69
2021/08/03 10:24:36;;;;;;;7.10;3.60;;;28.90;40.60;;;;;;21170839;28;20117;-76
2021/08/03 10:34:43;;;;;;;7.20;3.05;;;29.10;39.70;;;;;;21170237;28;20044;-67
2021/08/03 10:45:00;;;;;;;10.90;3.50;;;29.10;39.50;;;;;;21167059;28;20055;-68
2021/08/03 10:55:24;;;;;;;7.50;3.67;;;29.20;38.40;;;;;;21167854;28;20409;-72
2021/08/03 11:05:26;;;;;;;8.02;4.30;;;29.20;38.70;;;;;;21167828;28;20052;-75
2021/08/03 11:15:31;;;;;;;6.57;3.42;;;29.10;37.70;;;;;;21166045;28;20050;-70
2021/08/03 11:25:33;;;;;;;6.07;3.42;;;29.40;36.10;;;;;;21165658;28;20495;-75
2021/08/03 11:35:35;;;;;;;7.22;3.20;;;29.60;35.80;;;;;;21166027;28;20044;-68
2021/08/03 11:45:39;;;;;;;6.70;2.90;;;29.70;35.10;;;;;;21167363;28;20484;-72
2021/08/03 11:55:57;;;;;;;5.07;2.58;;;29.90;33.90;;;;;;21195145;28;20451;-63
2021/08/03 12:06:05;;;;;;;6.57;3.10;;;30.10;32.70;;;;;;21180947;28;20047;-73
2021/08/03 12:16:07;;;;;;;2.85;1.83;;;30.40;31.60;;;;;;21162267;28;20046;-76
2021/08/03 12:26:14;;;;;;;7.13;3.45;;;30.60;30.30;;;;;;21160807;28;20047;-73
2021/08/03 12:36:20;;;;;;;4.40;2.42;;;30.80;29.70;;;;;;21161496;28;20090;-69
2021/08/03 12:46:30;;;;;;;3.88;2.20;;;31.10;29.30;;;;;;21160841;28;20401;-70
2021/08/03 12:56:46;;;;;;;15.90;12.57;;;31.20;28.70;;;;;;21160187;28;20039;-67
2021/08/03 13:06:55;;;;;;;8.40;5.78;;;31.20;28.80;;;;;;21164558;28;20047;-66
2021/08/03 13:16:58;;;;;;;3.63;2.17;;;31.30;26.90;;;;;;21174494;28;20043;-73
2021/08/03 13:27:00;;;;;;;3.83;2.40;;;31.50;26.70;;;;;;21176296;28;20052;-71
2021/08/03 13:37:04;;;;;;;3.63;2.42;;;31.70;25.20;;;;;;21178432;28;20483;-72
2021/08/03 13:47:06;;;;;;;3.63;2.25;;;31.60;25.60;;;;;;21176876;28;20088;-69
2021/08/03 13:57:09;;;;;;;6.00;4.90;;;31.70;25.40;;;;;;21223014;28;20051;-69
2021/08/03 14:07:11;;;;;;;4.50;2.72;;;32.00;25.60;;;;;;21212848;28;20047;-66
2021/08/03 14:17:12;;;;;;;3.22;2.15;;;32.10;24.20;;;;;;21202912;28;20044;-72
2021/08/03 14:27:14;;;;;;;4.55;2.15;;;32.20;24.00;;;;;;21201017;28;20174;-71
2021/08/03 14:37:16;;;;;;;2.97;2.20;;;32.20;24.60;;;;;;21173046;28;20051;-70
2021/08/03 14:47:17;;;;;;;3.05;2.30;;;32.30;23.80;;;;;;21169143;28;20475;-70
2021/08/03 14:57:19;;;;;;;3.35;2.17;;;32.40;23.50;;;;;;21171149;28;20169;-75
2021/08/03 15:07:21;;;;;;;3.63;2.50;;;32.50;25.00;;;;;;21172174;28;20051;-68
2021/08/03 15:17:23;;;;;;;12.57;11.38;;;32.60;24.20;;;;;;21169909;28;20047;-68
2021/08/03 15:27:24;;;;;;;4.25;2.80;;;32.50;25.20;;;;;;21169384;28;20062;-75
2021/08/03 15:37:27;;;;;;;3.78;2.40;;;32.60;24.70;;;;;;21167708;28;20047;-72
2021/08/03 15:47:28;;;;;;;4.35;2.47;;;32.70;24.50;;;;;;21167998;28;20131;-72
2021/08/03 15:57:30;;;;;;;4.45;2.55;;;32.60;24.40;;;;;;21169521;28;20051;-75
2021/08/03 16:07:32;;;;;;;3.03;2.00;;;32.40;24.80;;;;;;21167895;28;20086;-72
2021/08/03 16:17:51;;;;;;;3.83;2.40;;;32.40;25.30;;;;;;21163150;28;20550;-67
2021/08/03 16:28:00;;;;;;;4.30;2.40;;;32.50;25.00;;;;;;21163031;28;20544;-73
2021/08/03 16:38:04;;;;;;;5.40;2.73;;;32.50;25.20;;;;;;21159231;28;20063;-68
2021/08/03 16:48:06;;;;;;;3.20;2.22;;;32.40;25.70;;;;;;21174969;28;20128;-67
2021/08/03 16:58:08;;;;;;;2.88;2.30;;;32.60;24.70;;;;;;21177252;28;20043;-70
2021/08/03 17:08:24;;;;;;;3.38;2.70;;;32.40;25.40;;;;;;21178390;28;20067;-69
2021/08/03 17:18:32;;;;;;;4.32;2.28;;;32.20;25.70;;;;;;21178919;28;20052;-70
2021/08/03 17:28:36;;;;;;;3.53;2.03;;;32.10;25.70;;;;;;21178173;28;20537;-70
2021/08/03 17:38:38;;;;;;;4.50;2.45;;;32.20;25.50;;;;;;21178818;28;20062;-70
2021/08/03 17:48:40;;;;;;;4.40;2.50;;;32.10;25.60;;;;;;21194544;28;20044;-76
2021/08/03 17:58:50;;;;;;;3.92;2.80;;;31.90;26.00;;;;;;21171529;28;20458;-69
2021/08/03 18:08:52;;;;;;;;;;;31.90;26.20;;;;;;21172166;28;20494;-75
2021/08/03 18:18:56;;;;;;;4.22;2.40;;;31.50;26.10;;;;;;21167925;28;19974;-67
2021/08/03 18:29:05;;;;;;;8.02;3.10;;;31.40;26.30;;;;;;21170488;28;20047;-74
2021/08/03 18:39:07;;;;;;;4.22;2.40;;;31.40;26.50;;;;;;21167333;28;20051;-67
2021/08/03 18:49:09;;;;;;;4.38;2.30;;;31.20;27.50;;;;;;21169047;28;20411;-74
2021/08/03 18:59:15;;;;;;;4.80;3.45;;;31.00;27.40;;;;;;21166095;28;20043;-70
2021/08/03 19:09:19;;;;;;;3.67;2.58;;;30.80;27.40;;;;;;21164517;28;20101;-74
2021/08/03 19:19:27;;;;;;;4.00;2.60;;;30.60;27.70;;;;;;21165291;28;20070;-76
2021/08/03 19:29:29;;;;;;;4.10;3.08;;;30.30;28.00;;;;;;21167799;28;21015;-75
2021/08/03 19:39:34;;;;;;;3.53;2.72;;;30.10;28.00;;;;;;21166089;28;20055;-71
2021/08/03 19:49:39;;;;;;;4.13;2.88;;;30.00;28.30;;;;;;21166706;28;20054;-75
2021/08/03 19:59:40;;;;;;;3.97;2.50;;;29.80;28.60;;;;;;21162312;28;20055;-65
2021/08/03 20:09:42;;;;;;;3.80;2.70;;;29.60;28.80;;;;;;21200459;28;20051;-65
2021/08/03 20:19:44;;;;;;;5.88;2.78;;;29.50;29.20;;;;;;21211711;28;20055;-65
2021/08/03 20:29:50;;;;;;;3.78;2.75;;;29.30;29.30;;;;;;21197954;28;20051;-71
2021/08/03 20:50:02;;;;;;;;;;;29.00;30.00;;;;;;21179236;28;20073;-67
2021/08/03 21:00:04;;;;;;;5.63;4.40;;;28.80;30.00;;;;;;21178336;28;19920;-74
2021/08/03 21:10:06;;;;;;;7.95;5.03;;;28.70;30.10;;;;;;21176741;28;20050;-70
2021/08/03 21:20:08;;;;;;;8.23;5.93;;;28.70;30.20;;;;;;21176615;28;20479;-73
2021/08/03 21:30:10;;;;;;;9.90;4.95;;;28.60;30.40;;;;;;21174655;28;20051;-68
2021/08/03 21:40:12;;;;;;;4.95;4.05;;;28.50;30.40;;;;;;21176210;28;20087;-70
2021/08/03 21:50:14;;;;;;;7.30;3.17;;;28.40;30.60;;;;;;21173644;28;20070;-72
2021/08/03 22:00:15;;;;;;;5.05;2.90;;;28.30;30.90;;;;;;21171467;28;20054;-66
2021/08/03 22:10:17;;;;;;;5.22;2.70;;;28.20;30.40;;;;;;21171138;28;20416;-66
2021/08/03 22:20:18;;;;;;;4.28;3.28;;;28.10;29.80;;;;;;21175534;28;20048;-67
2021/08/03 22:30:20;;;;;;;5.13;3.40;;;28.00;28.50;;;;;;21164583;28;20045;-67
2021/08/03 22:40:21;;;;;;;5.32;3.05;;;27.90;27.40;;;;;;21174589;28;20047;-65
2021/08/03 22:50:23;;;;;;;4.90;2.85;;;27.80;26.40;;;;;;21168052;28;20431;-65
2021/08/03 23:00:26;;;;;;;5.05;2.53;;;27.70;26.20;;;;;;21148199;28;20097;-65
2021/08/03 23:10:28;;;;;;;4.35;2.20;;;27.70;25.80;;;;;;21165970;28;20040;-68
2021/08/03 23:20:29;;;;;;;5.00;4.50;;;27.60;25.80;;;;;;21165948;28;20104;-78
2021/08/03 23:30:30;;;;;;;3.70;2.65;;;27.60;26.50;;;;;;21165179;28;20043;-71
2021/08/03 23:40:32;;;;;;;4.35;3.40;;;27.60;26.80;;;;;;21164381;28;20074;-69
2021/08/03 23:50:33;;;;;;;3.70;2.80;;;27.60;26.70;;;;;;21161389;28;20143;-67
